YDT weather

Public forecast

Using degrees Celsius for public forecast. Weather courtesy of forecast.io.

Closest aviation weather report (METAR) to Boundary Bay Airport

Closest report is Vancouver International Airport, 9.9 nm (18.3 km) NW. Retrieved 2020/08/14 20:00 UTC (13 minutes ago):

CYVR 142000Z 23007KT 25SM FEW018 FEW190 FEW260 19/14 A3021 RMK CU1AC1CI1 CU TR AC TR SLP232 DENSITY ALT 200FT

Closest aviation forecast (TAF) to Boundary Bay Airport

Closest forecast is Vancouver International Airport, 9.9 nm (18.3 km) NW. Retrieved 2020/08/14 18:39 UTC (2 hours ago):

TAF CYVR 141738Z 1418/1524 VRB03KT P6SM SKC FM141900 24008KT P6SM FEW060 FM150600 09006KT P6SM FEW200 FM151800 28008KT P6SM SKC RMK NXT FCST BY 142100Z